createdAt,value
2018-07-26T00:01:27.555Z,6.30
2018-07-26T00:03:56.507Z,6.00
2018-07-26T00:06:25.464Z,6.47
2018-07-26T00:08:54.254Z,6.50
2018-07-26T00:11:23.154Z,6.20
2018-07-26T00:13:52.091Z,6.37
2018-07-26T00:16:20.969Z,6.07
2018-07-26T00:18:50.050Z,6.47
2018-07-26T00:21:18.842Z,6.60
2018-07-26T00:23:47.780Z,6.07
2018-07-26T00:26:16.628Z,6.17
2018-07-26T00:28:45.438Z,6.60
2018-07-26T00:31:14.305Z,6.77
2018-07-26T00:33:43.128Z,6.20
2018-07-26T00:36:12.405Z,6.10
2018-07-26T00:38:41.301Z,7.03
2018-07-26T00:41:10.152Z,5.97
2018-07-26T00:43:39.041Z,6.13
2018-07-26T00:46:08.131Z,6.10
2018-07-26T00:48:37.119Z,6.20
2018-07-26T00:51:05.961Z,6.57
2018-07-26T00:53:34.811Z,6.20
2018-07-26T00:56:13.206Z,6.50
2018-07-26T00:58:43.514Z,6.63
2018-07-26T01:01:12.298Z,6.30
2018-07-26T01:03:41.078Z,6.20
2018-07-26T01:06:15.139Z,6.03
2018-07-26T01:08:43.935Z,6.30
2018-07-26T01:11:12.804Z,5.67
2018-07-26T01:13:41.859Z,6.10
2018-07-26T01:16:10.819Z,6.60
2018-07-26T01:18:39.795Z,6.13
2018-07-26T01:21:08.771Z,6.13
2018-07-26T01:23:37.645Z,6.07
2018-07-26T01:26:06.454Z,6.40
2018-07-26T01:28:35.246Z,6.30
2018-07-26T01:31:04.073Z,6.40
2018-07-26T01:33:32.894Z,5.97
2018-07-26T01:36:01.706Z,6.13
2018-07-26T01:38:30.542Z,6.63
2018-07-26T01:40:59.379Z,6.10
2018-07-26T01:43:48.938Z,6.37
2018-07-26T01:46:18.865Z,5.87
2018-07-26T01:48:47.691Z,6.70
2018-07-26T01:51:16.522Z,6.40
2018-07-26T01:53:45.722Z,5.67
2018-07-26T01:56:19.862Z,5.73
2018-07-26T01:58:48.743Z,6.67
2018-07-26T02:01:17.840Z,6.10
2018-07-26T02:03:46.697Z,6.47
2018-07-26T02:06:15.786Z,6.43
2018-07-26T02:08:44.904Z,6.33
2018-07-26T02:11:13.747Z,5.83
2018-07-26T02:13:42.574Z,6.53
2018-07-26T02:16:11.449Z,7.03
2018-07-26T02:18:40.295Z,6.80
2018-07-26T02:21:09.202Z,6.27
2018-07-26T02:23:38.011Z,6.47
2018-07-26T02:26:06.868Z,6.07
2018-07-26T02:28:35.734Z,6.23
2018-07-26T02:31:04.740Z,6.50
2018-07-26T02:33:33.598Z,5.77
2018-07-26T02:36:02.599Z,6.20
2018-07-26T02:38:31.393Z,6.70
2018-07-26T02:41:00.232Z,6.00
2018-07-26T02:43:29.038Z,6.03
2018-07-26T02:45:58.071Z,5.80
2018-07-26T02:48:26.893Z,5.97
2018-07-26T02:50:55.697Z,6.60
2018-07-26T02:53:24.568Z,6.73
2018-07-26T02:55:53.469Z,6.33
2018-07-26T02:58:22.353Z,6.47
2018-07-26T03:00:51.193Z,6.17
2018-07-26T03:03:20.049Z,6.33
2018-07-26T03:05:48.889Z,6.27
2018-07-26T03:08:17.727Z,6.70
2018-07-26T03:10:46.568Z,6.20
2018-07-26T03:13:15.366Z,6.57
2018-07-26T03:15:44.236Z,7.27
2018-07-26T03:18:13.133Z,7.03
2018-07-26T03:20:41.980Z,6.90
2018-07-26T03:23:10.992Z,6.70
2018-07-26T03:25:39.858Z,6.80
2018-07-26T03:28:08.883Z,6.77
2018-07-26T03:30:37.702Z,6.53
2018-07-26T03:33:06.526Z,6.70
2018-07-26T03:35:35.723Z,6.87
2018-07-26T03:38:04.708Z,7.00
2018-07-26T03:40:33.564Z,7.83
2018-07-26T03:43:02.402Z,7.40
2018-07-26T03:45:31.241Z,6.60
2018-07-26T03:48:00.090Z,7.17
2018-07-26T03:50:43.232Z,7.30
2018-07-26T03:53:12.159Z,6.80
2018-07-26T03:55:41.313Z,6.47
2018-07-26T03:58:10.153Z,7.20
2018-07-26T04:00:38.957Z,7.83
2018-07-26T04:03:07.816Z,6.47
2018-07-26T04:05:36.681Z,6.90
2018-07-26T04:08:05.611Z,7.40
2018-07-26T04:10:34.651Z,7.60
2018-07-26T04:13:03.607Z,7.47
2018-07-26T04:15:32.388Z,7.10
2018-07-26T04:18:04.261Z,7.53
2018-07-26T04:20:33.240Z,8.10
2018-07-26T04:23:02.343Z,7.37
2018-07-26T04:25:31.760Z,6.60
2018-07-26T04:28:00.794Z,7.37
2018-07-26T04:30:29.655Z,8.83
2018-07-26T04:32:58.496Z,7.63
2018-07-26T04:35:27.623Z,7.20
2018-07-26T04:37:56.595Z,7.47
2018-07-26T04:40:25.620Z,6.93
2018-07-26T04:42:54.559Z,7.37
2018-07-26T04:45:23.569Z,6.77
2018-07-26T04:47:52.397Z,6.53
2018-07-26T04:50:21.473Z,7.10
2018-07-26T04:52:50.356Z,6.93
2018-07-26T04:55:19.127Z,7.63
2018-07-26T04:57:47.941Z,7.20
2018-07-26T05:00:16.727Z,7.13
2018-07-26T05:02:45.571Z,8.00
2018-07-26T05:05:14.626Z,7.10
2018-07-26T05:07:43.463Z,6.70
2018-07-26T05:10:12.268Z,7.47
2018-07-26T05:12:41.303Z,6.97
2018-07-26T05:15:10.197Z,7.30
2018-07-26T05:17:38.921Z,8.07
2018-07-26T05:20:08.479Z,7.53
2018-07-26T05:22:37.834Z,7.70
2018-07-26T05:25:11.768Z,7.97
2018-07-26T05:27:40.609Z,7.80
2018-07-26T05:30:09.427Z,8.83
2018-07-26T05:32:38.211Z,7.77
2018-07-26T05:35:07.059Z,7.87
2018-07-26T05:37:35.910Z,7.77
2018-07-26T05:40:05.079Z,7.93
2018-07-26T05:42:33.927Z,7.90
2018-07-26T05:45:03.030Z,7.77
2018-07-26T05:47:31.811Z,7.70
2018-07-26T05:50:00.646Z,8.03
2018-07-26T05:52:29.480Z,7.77
2018-07-26T05:54:58.503Z,7.50
2018-07-26T05:57:27.344Z,8.17
2018-07-26T05:59:56.142Z,7.80
2018-07-26T06:02:25.060Z,7.40
2018-07-26T06:04:53.894Z,8.20
2018-07-26T06:07:22.726Z,7.73
2018-07-26T06:09:51.504Z,7.70
2018-07-26T06:12:20.335Z,6.90
2018-07-26T06:14:49.130Z,7.00
2018-07-26T06:17:17.995Z,6.80
2018-07-26T06:19:46.751Z,7.67
2018-07-26T06:22:15.554Z,7.93
2018-07-26T06:24:44.542Z,8.43
2018-07-26T06:27:13.651Z,7.90
2018-07-26T06:29:42.510Z,8.10
2018-07-26T06:32:11.547Z,7.27
2018-07-26T06:34:40.367Z,8.50
2018-07-26T06:37:09.162Z,7.23
2018-07-26T06:39:38.065Z,8.20
2018-07-26T06:42:06.874Z,7.50
2018-07-26T06:44:35.745Z,7.80
2018-07-26T06:47:04.579Z,7.47
2018-07-26T06:49:33.794Z,6.87
2018-07-26T06:52:02.559Z,6.40
2018-07-26T06:54:31.349Z,6.93
2018-07-26T06:57:00.252Z,6.87
2018-07-26T06:59:29.062Z,6.23
2018-07-26T07:01:57.901Z,7.70
2018-07-26T07:04:26.675Z,7.07
2018-07-26T07:06:55.510Z,7.63
2018-07-26T07:09:24.354Z,6.43
2018-07-26T07:11:53.173Z,6.20
2018-07-26T07:14:21.968Z,6.93
2018-07-26T07:16:50.929Z,6.93
2018-07-26T07:19:19.747Z,6.67
2018-07-26T07:21:48.586Z,6.30
2018-07-26T07:24:20.315Z,7.27
2018-07-26T07:26:50.568Z,7.43
2018-07-26T07:29:19.435Z,6.97
2018-07-26T07:31:48.239Z,6.30
2018-07-26T07:34:17.121Z,5.73
2018-07-26T07:36:45.978Z,5.87
2018-07-26T07:39:15.127Z,5.40
2018-07-26T07:41:43.929Z,5.40
2018-07-26T07:44:12.794Z,6.03
2018-07-26T07:46:41.876Z,7.03
2018-07-26T07:49:10.660Z,5.90
2018-07-26T07:51:39.510Z,6.03
2018-07-26T07:54:08.314Z,6.20
2018-07-26T07:56:37.183Z,6.83
2018-07-26T07:59:06.093Z,6.73
2018-07-26T08:01:34.925Z,6.80
2018-07-26T08:04:03.860Z,6.17
2018-07-26T08:06:32.937Z,6.00
2018-07-26T08:09:01.770Z,6.77
2018-07-26T08:11:30.586Z,6.83
2018-07-26T08:13:59.504Z,8.00
2018-07-26T08:16:28.370Z,7.13
2018-07-26T08:18:57.201Z,6.73
2018-07-26T08:21:26.027Z,6.53
2018-07-26T08:23:54.770Z,6.40
2018-07-26T08:26:23.595Z,6.73
2018-07-26T08:28:52.397Z,7.30
2018-07-26T08:31:21.178Z,7.00
2018-07-26T08:33:49.982Z,6.83
2018-07-26T08:36:19.222Z,7.28
2018-07-26T08:38:48.036Z,6.80
2018-07-26T08:41:16.843Z,7.30
2018-07-26T08:43:45.694Z,6.53
2018-07-26T08:46:14.573Z,6.65
2018-07-26T08:48:43.394Z,6.87
2018-07-26T08:51:12.258Z,6.20
2018-07-26T08:53:41.033Z,6.60
2018-07-26T08:56:14.875Z,6.55
2018-07-26T08:58:43.722Z,7.28
2018-07-26T09:01:12.599Z,6.37
2018-07-26T09:03:41.324Z,6.47
2018-07-26T09:06:10.454Z,6.42
2018-07-26T09:08:39.241Z,6.67
2018-07-26T09:11:08.088Z,6.70
2018-07-26T09:13:36.975Z,6.72
2018-07-26T09:16:05.846Z,6.83
2018-07-26T09:18:34.655Z,7.30
2018-07-26T09:21:03.526Z,6.90
2018-07-26T09:23:32.314Z,6.42
2018-07-26T09:26:01.237Z,6.03
2018-07-26T09:28:30.154Z,6.83
2018-07-26T09:30:59.174Z,8.28
2018-07-26T09:33:27.979Z,6.58
2018-07-26T09:35:56.796Z,6.40
2018-07-26T09:38:25.734Z,5.80
2018-07-26T09:40:54.562Z,6.25
2018-07-26T09:43:23.346Z,6.28
2018-07-26T09:45:52.178Z,5.70
2018-07-26T09:48:21.015Z,6.33
2018-07-26T09:50:49.807Z,6.40
2018-07-26T09:53:18.613Z,6.22
2018-07-26T09:55:47.839Z,6.03
2018-07-26T09:58:16.668Z,5.87
2018-07-26T10:00:50.684Z,6.70
2018-07-26T10:03:19.523Z,5.65
2018-07-26T10:05:53.487Z,6.70
2018-07-26T10:08:22.296Z,7.10
2018-07-26T10:10:51.721Z,6.25
2018-07-26T10:13:20.735Z,6.53
2018-07-26T10:15:49.630Z,5.97
2018-07-26T10:18:18.470Z,6.40
2018-07-26T10:20:47.424Z,5.75
2018-07-26T10:23:16.242Z,6.50
2018-07-26T10:25:45.425Z,6.30
2018-07-26T10:28:14.258Z,6.92
2018-07-26T10:30:43.033Z,6.58
2018-07-26T10:33:11.850Z,6.40
2018-07-26T10:35:40.739Z,6.35
2018-07-26T10:38:09.561Z,6.25
2018-07-26T10:40:38.361Z,6.37
2018-07-26T10:43:07.140Z,6.87
2018-07-26T10:45:36.330Z,6.90
2018-07-26T10:48:05.285Z,6.10
2018-07-26T10:50:34.050Z,6.37
2018-07-26T10:53:02.913Z,6.70
2018-07-26T10:55:31.687Z,6.35
2018-07-26T10:58:00.734Z,5.83
2018-07-26T11:00:29.547Z,5.95
2018-07-26T11:02:58.341Z,6.28
2018-07-26T11:05:27.122Z,6.17
2018-07-26T11:07:55.988Z,6.40
2018-07-26T11:10:24.889Z,5.87
2018-07-26T11:12:53.715Z,5.83
2018-07-26T11:15:26.247Z,6.30
2018-07-26T11:17:55.081Z,6.17
2018-07-26T11:20:24.840Z,5.83
2018-07-26T11:22:53.664Z,5.70
2018-07-26T11:25:22.760Z,6.65
2018-07-26T11:27:51.880Z,5.53
2018-07-26T11:30:20.708Z,5.72
2018-07-26T11:32:49.603Z,5.60
2018-07-26T11:35:18.465Z,5.97
2018-07-26T11:37:47.351Z,5.50
2018-07-26T11:40:16.200Z,5.90
2018-07-26T11:42:45.965Z,5.75
2018-07-26T11:45:19.884Z,5.72
2018-07-26T11:47:48.807Z,6.12
2018-07-26T11:50:17.744Z,6.30
2018-07-26T11:52:46.662Z,5.50
2018-07-26T11:55:20.738Z,5.55
2018-07-26T11:57:49.669Z,5.60
2018-07-26T12:00:18.526Z,5.60
2018-07-26T12:02:47.348Z,5.20
2018-07-26T12:05:16.169Z,5.10
2018-07-26T12:07:45.222Z,5.40
2018-07-26T12:10:14.147Z,5.12
2018-07-26T12:12:43.127Z,5.17
2018-07-26T12:15:12.096Z,5.20
2018-07-26T12:17:41.375Z,4.47
2018-07-26T12:20:10.359Z,4.67
2018-07-26T12:22:39.361Z,4.78
2018-07-26T12:25:08.500Z,5.03
2018-07-26T12:27:37.362Z,4.75
2018-07-26T12:30:07.245Z,4.95
2018-07-26T12:32:36.547Z,4.45
2018-07-26T12:35:05.588Z,4.62
2018-07-26T12:37:34.483Z,4.37
2018-07-26T12:40:03.297Z,4.53
2018-07-26T12:42:32.172Z,4.50
2018-07-26T12:45:00.994Z,4.75
2018-07-26T12:47:29.918Z,4.50
2018-07-26T12:49:58.974Z,4.22
2018-07-26T12:52:27.843Z,4.37
2018-07-26T12:54:56.833Z,4.45
2018-07-26T12:57:25.728Z,4.58
2018-07-26T12:59:54.623Z,4.53
2018-07-26T13:02:23.438Z,4.40
2018-07-26T13:04:57.468Z,4.25
2018-07-26T13:07:26.402Z,4.33
2018-07-26T13:09:55.236Z,4.55
2018-07-26T13:12:24.111Z,4.30
2018-07-26T13:14:53.111Z,4.37
2018-07-26T13:17:22.025Z,4.50
2018-07-26T13:19:50.946Z,4.15
2018-07-26T13:22:19.752Z,4.25
2018-07-26T13:24:50.028Z,3.75
2018-07-26T13:27:19.270Z,4.20
2018-07-26T13:29:48.017Z,4.00
2018-07-26T13:32:16.826Z,4.05
2018-07-26T13:34:45.634Z,3.77
2018-07-26T13:37:14.517Z,4.12
2018-07-26T13:39:43.743Z,3.98
2018-07-26T13:42:12.721Z,4.03
2018-07-26T13:44:41.698Z,4.10
2018-07-26T13:47:10.644Z,4.80
2018-07-26T13:49:39.503Z,3.90
2018-07-26T13:52:08.406Z,4.00
2018-07-26T13:54:37.988Z,4.25
2018-07-26T13:57:07.539Z,4.17
2018-07-26T13:59:36.869Z,4.75
2018-07-26T14:02:06.039Z,4.42
2018-07-26T14:04:35.259Z,3.90
2018-07-26T14:07:04.303Z,4.05
2018-07-26T14:09:33.508Z,3.90
2018-07-26T14:12:03.301Z,4.40
2018-07-26T14:14:32.299Z,4.15
2018-07-26T14:17:01.330Z,3.92
2018-07-26T14:19:30.626Z,3.90
2018-07-26T14:21:59.486Z,4.10
2018-07-26T14:24:28.350Z,3.98
2018-07-26T14:26:57.252Z,4.00
2018-07-26T14:29:26.056Z,3.85
2018-07-26T14:31:54.904Z,3.80
2018-07-26T14:34:23.797Z,3.70
2018-07-26T14:36:52.624Z,4.10
2018-07-26T14:39:21.488Z,3.87
2018-07-26T14:41:50.368Z,3.75
2018-07-26T14:44:19.243Z,3.98
2018-07-26T14:46:48.045Z,4.00
2018-07-26T14:49:16.907Z,3.83
2018-07-26T14:51:45.775Z,4.05
2018-07-26T14:54:14.602Z,3.90
2018-07-26T14:56:48.556Z,4.08
2018-07-26T14:59:17.342Z,4.40
2018-07-26T15:01:46.208Z,4.15
2018-07-26T15:04:15.099Z,4.00
2018-07-26T15:06:44.805Z,3.83
2018-07-26T15:09:13.598Z,4.10
2018-07-26T15:11:42.485Z,3.77
2018-07-26T15:14:11.375Z,4.20
2018-07-26T15:16:40.161Z,4.20
2018-07-26T15:19:08.996Z,4.00
2018-07-26T15:21:37.874Z,3.65
2018-07-26T15:24:06.815Z,3.80
2018-07-26T15:26:35.646Z,3.98
2018-07-26T15:29:04.845Z,4.00
2018-07-26T15:31:33.863Z,4.17
2018-07-26T15:34:02.731Z,4.00
2018-07-26T15:36:31.856Z,4.47
2018-07-26T15:39:01.251Z,4.60
2018-07-26T15:41:30.079Z,4.10
2018-07-26T15:43:58.968Z,3.95
2018-07-26T15:46:28.104Z,3.95
2018-07-26T15:48:56.956Z,4.47
2018-07-26T15:51:25.869Z,3.70
2018-07-26T15:53:54.663Z,4.22
2018-07-26T15:56:23.437Z,3.92
2018-07-26T15:58:52.237Z,4.40
2018-07-26T16:01:21.151Z,3.90
2018-07-26T16:03:49.964Z,4.58
2018-07-26T16:06:18.802Z,3.70
2018-07-26T16:08:47.615Z,4.37
2018-07-26T16:11:16.728Z,4.35
2018-07-26T16:13:45.595Z,4.65
2018-07-26T16:16:19.656Z,4.40
2018-07-26T16:18:48.558Z,3.92
2018-07-26T16:21:17.742Z,3.85
2018-07-26T16:23:46.634Z,3.87
2018-07-26T16:26:15.828Z,3.42
2018-07-26T16:28:44.668Z,3.95
2018-07-26T16:31:13.705Z,3.95
2018-07-26T16:33:42.544Z,4.08
2018-07-26T16:36:11.353Z,4.58
2018-07-26T16:38:40.219Z,3.98
2018-07-26T16:41:09.146Z,3.70
2018-07-26T16:43:37.968Z,3.80
2018-07-26T16:46:07.052Z,3.58
2018-07-26T16:48:35.907Z,3.40
2018-07-26T16:51:04.808Z,3.55
2018-07-26T16:53:33.671Z,3.75
2018-07-26T16:56:02.508Z,3.77
2018-07-26T16:58:31.403Z,3.75
2018-07-26T17:01:00.234Z,3.50
2018-07-26T17:03:29.064Z,3.90
2018-07-26T17:05:58.039Z,3.27
2018-07-26T17:08:26.850Z,3.30
2018-07-26T17:10:55.702Z,3.40
2018-07-26T17:13:24.620Z,3.50
2018-07-26T17:15:53.468Z,3.60
2018-07-26T17:18:22.289Z,4.03
2018-07-26T17:20:51.122Z,3.17
2018-07-26T17:23:19.957Z,3.02
2018-07-26T17:25:48.778Z,3.12
2018-07-26T17:28:17.665Z,3.42
2018-07-26T17:30:46.453Z,3.50
2018-07-26T17:33:15.391Z,3.20
2018-07-26T17:35:44.479Z,3.30
2018-07-26T17:38:13.332Z,3.80
2018-07-26T17:40:42.302Z,4.03
2018-07-26T17:43:11.172Z,3.65
2018-07-26T17:45:40.270Z,3.90
2018-07-26T17:48:09.067Z,4.03
2018-07-26T17:50:38.051Z,4.15
2018-07-26T17:53:06.889Z,3.72
2018-07-26T17:55:35.714Z,3.83
2018-07-26T17:58:04.649Z,4.45
2018-07-26T18:00:33.818Z,3.67
2018-07-26T18:03:02.821Z,4.35
2018-07-26T18:05:31.666Z,4.30
2018-07-26T18:08:00.460Z,4.05
2018-07-26T18:10:29.288Z,3.90
2018-07-26T18:12:58.058Z,4.20
2018-07-26T18:15:26.830Z,3.95
2018-07-26T18:17:55.632Z,3.62
2018-07-26T18:20:24.432Z,3.98
2018-07-26T18:22:53.247Z,3.22
2018-07-26T18:25:22.083Z,4.00
2018-07-26T18:27:50.881Z,3.98
2018-07-26T18:30:19.762Z,3.60
2018-07-26T18:32:48.628Z,3.83
2018-07-26T18:35:17.480Z,3.25
2018-07-26T18:37:46.336Z,4.87
2018-07-26T18:40:15.422Z,3.47
2018-07-26T18:42:44.207Z,3.60
2018-07-26T18:45:13.243Z,4.10
2018-07-26T18:47:42.067Z,3.72
2018-07-26T18:50:11.615Z,4.28
2018-07-26T18:52:40.387Z,4.87
2018-07-26T18:55:10.383Z,5.70
2018-07-26T18:57:39.880Z,4.30
2018-07-26T19:00:10.707Z,4.40
2018-07-26T19:02:39.545Z,3.70
2018-07-26T19:05:08.788Z,3.50
2018-07-26T19:07:37.895Z,3.67
2018-07-26T19:10:08.620Z,4.10
2018-07-26T19:12:38.223Z,3.70
2018-07-26T19:15:09.197Z,3.85
2018-07-26T19:17:38.107Z,3.80
2018-07-26T19:20:08.588Z,3.77
2018-07-26T19:22:37.949Z,4.12
2018-07-26T19:25:07.271Z,4.40
2018-07-26T19:27:36.143Z,3.80
2018-07-26T19:30:06.433Z,7.20
2018-07-26T19:32:35.259Z,5.00
2018-07-26T19:35:04.179Z,4.30
2018-07-26T19:37:33.220Z,4.23
2018-07-26T19:40:02.066Z,4.23
2018-07-26T19:42:31.082Z,6.93
2018-07-26T19:44:59.875Z,4.30
2018-07-26T19:47:28.842Z,4.07
2018-07-26T19:49:58.020Z,4.50
2018-07-26T19:52:27.017Z,4.40
2018-07-26T19:54:56.076Z,3.80
2018-07-26T19:57:25.066Z,4.72
2018-07-26T19:59:53.861Z,4.43
2018-07-26T20:02:22.739Z,3.97
2018-07-26T20:04:51.595Z,4.07
2018-07-26T20:07:20.607Z,4.60
2018-07-26T20:09:49.435Z,4.57
2018-07-26T20:12:18.490Z,4.30
2018-07-26T20:14:47.314Z,5.53
2018-07-26T20:17:16.152Z,4.43
2018-07-26T20:19:45.150Z,4.87
2018-07-26T20:22:14.030Z,4.80
2018-07-26T20:24:42.805Z,5.53
2018-07-26T20:27:11.644Z,5.30
2018-07-26T20:29:40.530Z,4.40
2018-07-26T20:32:09.316Z,4.63
2018-07-26T20:34:38.181Z,4.27
2018-07-26T20:37:07.035Z,4.03
2018-07-26T20:39:35.892Z,4.30
2018-07-26T20:42:04.900Z,4.47
2018-07-26T20:44:33.801Z,4.50
2018-07-26T20:47:02.776Z,4.00
2018-07-26T20:49:31.651Z,4.50
2018-07-26T20:52:00.485Z,3.90
2018-07-26T20:54:29.272Z,4.20
2018-07-26T20:56:58.169Z,4.43
2018-07-26T20:59:27.136Z,4.30
2018-07-26T21:01:55.987Z,4.30
2018-07-26T21:04:24.878Z,4.03
2018-07-26T21:06:53.682Z,4.30
2018-07-26T21:09:22.538Z,4.77
2018-07-26T21:11:51.394Z,4.13
2018-07-26T21:14:20.366Z,4.23
2018-07-26T21:16:49.244Z,4.20
2018-07-26T21:19:18.237Z,4.73
2018-07-26T21:21:47.062Z,5.17
2018-07-26T21:24:16.322Z,4.30
2018-07-26T21:26:45.159Z,4.53
2018-07-26T21:29:13.939Z,4.63
2018-07-26T21:31:42.882Z,4.37
2018-07-26T21:34:11.660Z,4.50
2018-07-26T21:36:40.464Z,4.20
2018-07-26T21:39:10.454Z,4.33
2018-07-26T21:41:39.611Z,4.20
2018-07-26T21:44:08.457Z,4.37
2018-07-26T21:46:37.292Z,4.80
2018-07-26T21:49:06.347Z,4.20
2018-07-26T21:51:35.234Z,4.20
2018-07-26T21:54:04.088Z,4.27
2018-07-26T21:56:32.925Z,4.23
2018-07-26T21:59:01.711Z,4.43
2018-07-26T22:01:30.540Z,4.40
2018-07-26T22:03:59.395Z,4.20
2018-07-26T22:06:28.315Z,4.40
2018-07-26T22:08:57.438Z,4.20
2018-07-26T22:11:26.269Z,4.13
2018-07-26T22:13:55.058Z,4.30
2018-07-26T22:16:24.043Z,3.90
2018-07-26T22:18:52.877Z,4.03
2018-07-26T22:21:21.744Z,4.10
2018-07-26T22:23:50.617Z,4.00
2018-07-26T22:26:19.477Z,4.00
2018-07-26T22:28:48.307Z,4.30
2018-07-26T22:31:17.124Z,4.17
2018-07-26T22:33:45.938Z,4.30
2018-07-26T22:36:14.963Z,4.17
2018-07-26T22:38:43.752Z,4.50
2018-07-26T22:41:12.571Z,4.03
2018-07-26T22:43:41.382Z,4.23
2018-07-26T22:46:15.474Z,3.97
2018-07-26T22:48:44.448Z,3.97
2018-07-26T22:51:13.324Z,4.20
2018-07-26T22:53:42.157Z,3.87
2018-07-26T22:56:11.030Z,3.97
2018-07-26T22:58:39.833Z,4.07
2018-07-26T23:01:08.670Z,3.93
2018-07-26T23:03:37.458Z,3.90
2018-07-26T23:06:06.468Z,4.03
2018-07-26T23:08:35.313Z,4.30
2018-07-26T23:11:04.179Z,4.10
2018-07-26T23:13:32.963Z,4.43
2018-07-26T23:16:15.400Z,3.77
2018-07-26T23:18:44.382Z,4.27
2018-07-26T23:21:13.217Z,4.03
2018-07-26T23:23:42.069Z,3.83
2018-07-26T23:26:10.864Z,4.30
2018-07-26T23:28:39.679Z,4.50
2018-07-26T23:31:08.504Z,3.93
2018-07-26T23:33:37.352Z,4.10
2018-07-26T23:36:06.373Z,4.20
2018-07-26T23:38:35.174Z,4.70
2018-07-26T23:41:04.168Z,4.30
2018-07-26T23:43:32.949Z,3.97
2018-07-26T23:46:02.062Z,4.30
2018-07-26T23:48:30.874Z,4.07
2018-07-26T23:50:59.687Z,4.37
2018-07-26T23:53:28.478Z,4.17
2018-07-26T23:56:02.663Z,4.27
2018-07-26T23:58:31.819Z,4.10
